Terminal Aerodrome Forecast
Issued by NWS

Home | Current Version | Previous Version | Graphics & Text | Print | Product List | Glossary On
Versions: 1 2 3 4 5 6 7 8 9 10 11 12 13 14 15 16 17 18 19 20
000
FTUS43 KBIS 292300
TAFMOT
TAF
KMOT 292333Z 3000/3024 21006KT P6SM FEW080 BKN100
     FM300700 33012KT P6SM -DZ BKN030
     FM301000 34011KT P6SM -FZDZ OVC015
     FM301200 35010KT P6SM OVC020
     FM301700 36011KT P6SM SCT030=

USA.gov is the U.S. government's official web portal to all federal, state and local government web resources and services.